sensor_id;sensor_type;location;lat;lon;timestamp;pressure;altitude;pressure_sealevel;temperature;humidity
11184;BME280;5648;43.628;22.684;2022-07-29T00:01:59;95432.22;;;20.89;100.00
11184;BME280;5648;43.628;22.684;2022-07-29T00:04:25;95435.44;;;20.91;100.00
11184;BME280;5648;43.628;22.684;2022-07-29T00:06:50;95440.28;;;20.89;100.00
11184;BME280;5648;43.628;22.684;2022-07-29T00:09:16;95435.16;;;20.83;100.00
11184;BME280;5648;43.628;22.684;2022-07-29T00:11:41;95436.25;;;20.92;100.00
11184;BME280;5648;43.628;22.684;2022-07-29T00:14:07;95431.69;;;20.87;100.00
11184;BME280;5648;43.628;22.684;2022-07-29T00:16:33;95433.56;;;20.97;100.00
11184;BME280;5648;43.628;22.684;2022-07-29T00:18:59;95434.16;;;20.99;100.00
11184;BME280;5648;43.628;22.684;2022-07-29T00:21:24;95432.22;;;20.94;100.00
11184;BME280;5648;43.628;22.684;2022-07-29T00:23:50;95437.91;;;20.98;100.00
11184;BME280;5648;43.628;22.684;2022-07-29T00:26:15;95439.22;;;20.95;100.00
11184;BME280;5648;43.628;22.684;2022-07-29T00:28:41;95431.41;;;20.89;100.00
11184;BME280;5648;43.628;22.684;2022-07-29T00:31:06;95425.25;;;20.93;100.00
11184;BME280;5648;43.628;22.684;2022-07-29T00:33:33;95427.41;;;20.96;100.00
11184;BME280;5648;43.628;22.684;2022-07-29T00:35:58;95434.66;;;20.96;100.00
11184;BME280;5648;43.628;22.684;2022-07-29T00:38:24;95430.66;;;20.98;100.00
11184;BME280;5648;43.628;22.684;2022-07-29T00:40:49;95425.72;;;20.80;100.00
11184;BME280;5648;43.628;22.684;2022-07-29T00:43:16;95429.53;;;20.89;100.00
11184;BME280;5648;43.628;22.684;2022-07-29T00:45:42;95422.84;;;21.02;100.00
11184;BME280;5648;43.628;22.684;2022-07-29T00:48:08;95422.09;;;21.12;100.00
11184;BME280;5648;43.628;22.684;2022-07-29T00:50:35;95409.72;;;21.21;100.00
11184;BME280;5648;43.628;22.684;2022-07-29T00:53:02;95407.00;;;21.11;100.00
11184;BME280;5648;43.628;22.684;2022-07-29T00:55:28;95413.19;;;21.06;100.00
11184;BME280;5648;43.628;22.684;2022-07-29T00:57:55;95413.22;;;21.21;100.00
11184;BME280;5648;43.628;22.684;2022-07-29T01:00:23;95418.06;;;21.19;100.00
11184;BME280;5648;43.628;22.684;2022-07-29T01:02:50;95421.06;;;21.28;100.00
11184;BME280;5648;43.628;22.684;2022-07-29T01:05:20;95410.22;;;21.08;100.00
11184;BME280;5648;43.628;22.684;2022-07-29T01:07:49;95410.25;;;21.23;100.00
11184;BME280;5648;43.628;22.684;2022-07-29T01:10:15;95411.59;;;21.15;100.00
11184;BME280;5648;43.628;22.684;2022-07-29T01:12:44;95409.19;;;21.14;100.00
11184;BME280;5648;43.628;22.684;2022-07-29T01:15:12;95406.47;;;21.09;100.00
11184;BME280;5648;43.628;22.684;2022-07-29T01:18:14;95408.06;;;21.04;100.00
11184;BME280;5648;43.628;22.684;2022-07-29T01:29:22;95397.66;;;21.33;100.00
11184;BME280;5648;43.628;22.684;2022-07-29T01:31:54;95396.84;;;21.33;100.00
11184;BME280;5648;43.628;22.684;2022-07-29T01:34:24;95390.69;;;21.32;100.00
11184;BME280;5648;43.628;22.684;2022-07-29T01:37:06;95392.56;;;21.27;100.00
11184;BME280;5648;43.628;22.684;2022-07-29T01:39:35;95393.66;;;21.41;100.00
11184;BME280;5648;43.628;22.684;2022-07-29T01:42:34;95394.72;;;21.45;100.00
11184;BME280;5648;43.628;22.684;2022-07-29T01:45:21;95389.31;;;21.35;100.00
11184;BME280;5648;43.628;22.684;2022-07-29T01:50:49;95389.88;;;21.37;100.00
11184;BME280;5648;43.628;22.684;2022-07-29T01:53:25;95384.47;;;21.37;100.00
11184;BME280;5648;43.628;22.684;2022-07-29T01:55:52;95380.72;;;21.33;100.00
11184;BME280;5648;43.628;22.684;2022-07-29T01:58:20;95382.88;;;21.31;100.00
11184;BME280;5648;43.628;22.684;2022-07-29T02:00:48;95388.78;;;21.38;100.00
11184;BME280;5648;43.628;22.684;2022-07-29T02:03:15;95376.44;;;21.42;100.00
11184;BME280;5648;43.628;22.684;2022-07-29T02:05:43;95379.66;;;21.34;100.00
11184;BME280;5648;43.628;22.684;2022-07-29T02:08:11;95374.22;;;21.19;100.00
11184;BME280;5648;43.628;22.684;2022-07-29T02:10:39;95375.84;;;21.20;100.00
11184;BME280;5648;43.628;22.684;2022-07-29T02:13:07;95372.13;;;21.26;100.00
11184;BME280;5648;43.628;22.684;2022-07-29T02:15:34;95377.50;;;21.36;100.00
11184;BME280;5648;43.628;22.684;2022-07-29T02:18:10;95376.72;;;21.41;100.00
11184;BME280;5648;43.628;22.684;2022-07-29T02:20:39;95370.53;;;21.40;100.00
11184;BME280;5648;43.628;22.684;2022-07-29T02:23:10;95369.97;;;21.33;100.00
11184;BME280;5648;43.628;22.684;2022-07-29T02:25:37;95368.63;;;21.30;100.00
11184;BME280;5648;43.628;22.684;2022-07-29T02:28:05;95371.00;;;21.22;100.00
11184;BME280;5648;43.628;22.684;2022-07-29T02:30:31;95373.16;;;21.15;100.00
11184;BME280;5648;43.628;22.684;2022-07-29T02:32:58;95377.97;;;21.08;100.00
11184;BME280;5648;43.628;22.684;2022-07-29T02:35:24;95367.22;;;20.97;100.00
11184;BME280;5648;43.628;22.684;2022-07-29T02:37:50;95375.00;;;20.99;100.00
11184;BME280;5648;43.628;22.684;2022-07-29T02:40:38;95369.63;;;21.09;100.00
11184;BME280;5648;43.628;22.684;2022-07-29T02:43:05;95370.19;;;21.16;100.00
11184;BME280;5648;43.628;22.684;2022-07-29T02:45:32;95359.44;;;21.16;100.00
11184;BME280;5648;43.628;22.684;2022-07-29T02:48:00;95366.16;;;21.14;100.00
11184;BME280;5648;43.628;22.684;2022-07-29T02:50:35;95369.91;;;21.08;100.00
11184;BME280;5648;43.628;22.684;2022-07-29T02:53:08;95375.81;;;21.04;100.00
11184;BME280;5648;43.628;22.684;2022-07-29T02:55:50;95381.19;;;21.10;100.00
11184;BME280;5648;43.628;22.684;2022-07-29T02:58:32;95373.63;;;20.96;100.00
11184;BME280;5648;43.628;22.684;2022-07-29T03:01:02;95373.94;;;21.05;100.00
11184;BME280;5648;43.628;22.684;2022-07-29T03:03:32;95372.06;;;21.11;100.00
11184;BME280;5648;43.628;22.684;2022-07-29T03:06:01;95370.97;;;21.07;100.00
11184;BME280;5648;43.628;22.684;2022-07-29T03:08:27;95364.81;;;21.01;100.00
11184;BME280;5648;43.628;22.684;2022-07-29T03:10:53;95371.50;;;20.83;100.00
11184;BME280;5648;43.628;22.684;2022-07-29T03:13:19;95373.31;;;20.67;100.00
11184;BME280;5648;43.628;22.684;2022-07-29T03:15:45;95378.88;;;20.51;100.00
11184;BME280;5648;43.628;22.684;2022-07-29T03:18:12;95378.59;;;20.47;100.00
11184;BME280;5648;43.628;22.684;2022-07-29T03:20:39;95379.13;;;20.44;100.00
11184;BME280;5648;43.628;22.684;2022-07-29T03:23:06;95378.94;;;20.61;100.00
11184;BME280;5648;43.628;22.684;2022-07-29T03:25:31;95380.81;;;20.60;100.00
11184;BME280;5648;43.628;22.684;2022-07-29T03:27:57;95390.47;;;20.56;100.00
11184;BME280;5648;43.628;22.684;2022-07-29T03:30:23;95385.13;;;20.61;100.00
11184;BME280;5648;43.628;22.684;2022-07-29T03:32:50;95381.66;;;20.71;100.00
11184;BME280;5648;43.628;22.684;2022-07-29T03:35:15;95386.44;;;20.59;100.00
11184;BME280;5648;43.628;22.684;2022-07-29T03:37:45;95387.38;;;20.37;100.00
11184;BME280;5648;43.628;22.684;2022-07-29T03:40:16;95387.59;;;20.26;100.00
11184;BME280;5648;43.628;22.684;2022-07-29T03:42:44;95391.59;;;20.13;100.00
11184;BME280;5648;43.628;22.684;2022-07-29T03:45:13;95384.34;;;20.19;100.00
11184;BME280;5648;43.628;22.684;2022-07-29T03:47:51;95375.69;;;20.06;100.00
11184;BME280;5648;43.628;22.684;2022-07-29T03:50:19;95380.16;;;19.91;100.00
11184;BME280;5648;43.628;22.684;2022-07-29T03:52:46;95391.00;;;20.06;100.00
11184;BME280;5648;43.628;22.684;2022-07-29T03:55:13;95392.59;;;20.07;100.00
11184;BME280;5648;43.628;22.684;2022-07-29T03:57:39;95391.78;;;20.01;100.00
11184;BME280;5648;43.628;22.684;2022-07-29T04:00:06;95391.47;;;19.98;100.00
11184;BME280;5648;43.628;22.684;2022-07-29T04:02:32;95401.91;;;19.94;100.00
11184;BME280;5648;43.628;22.684;2022-07-29T04:04:58;95400.84;;;19.95;100.00
11184;BME280;5648;43.628;22.684;2022-07-29T04:07:23;95400.81;;;19.90;100.00
11184;BME280;5648;43.628;22.684;2022-07-29T04:09:49;95395.50;;;19.58;100.00
11184;BME280;5648;43.628;22.684;2022-07-29T04:12:14;95394.47;;;19.64;100.00
11184;BME280;5648;43.628;22.684;2022-07-29T04:14:40;95398.19;;;19.58;100.00
11184;BME280;5648;43.628;22.684;2022-07-29T04:17:05;95408.00;;;19.47;100.00
11184;BME280;5648;43.628;22.684;2022-07-29T04:19:32;95402.75;;;19.58;100.00
11184;BME280;5648;43.628;22.684;2022-07-29T04:21:58;95413.69;;;19.56;100.00
11184;BME280;5648;43.628;22.684;2022-07-29T04:24:24;95412.66;;;19.57;100.00
11184;BME280;5648;43.628;22.684;2022-07-29T04:26:50;95410.41;;;19.49;100.00
11184;BME280;5648;43.628;22.684;2022-07-29T04:29:16;95405.03;;;19.49;100.00
11184;BME280;5648;43.628;22.684;2022-07-29T04:31:42;95400.25;;;19.24;100.00
11184;BME280;5648;43.628;22.684;2022-07-29T04:34:07;95403.41;;;19.16;100.00
11184;BME280;5648;43.628;22.684;2022-07-29T04:36:33;95400.22;;;19.19;100.00
11184;BME280;5648;43.628;22.684;2022-07-29T04:38:59;95409.47;;;19.33;100.00
11184;BME280;5648;43.628;22.684;2022-07-29T04:41:25;95408.69;;;19.38;100.00
11184;BME280;5648;43.628;22.684;2022-07-29T04:43:51;95396.44;;;19.47;100.00
11184;BME280;5648;43.628;22.684;2022-07-29T04:46:16;95402.78;;;19.36;100.00
11184;BME280;5648;43.628;22.684;2022-07-29T04:48:42;95406.38;;;19.46;100.00
11184;BME280;5648;43.628;22.684;2022-07-29T04:51:07;95402.38;;;19.49;100.00
11184;BME280;5648;43.628;22.684;2022-07-29T04:53:33;95400.88;;;19.58;100.00
11184;BME280;5648;43.628;22.684;2022-07-29T04:55:58;95406.66;;;19.50;100.00
11184;BME280;5648;43.628;22.684;2022-07-29T04:58:24;95408.16;;;19.68;100.00
11184;BME280;5648;43.628;22.684;2022-07-29T05:00:50;95410.28;;;19.61;100.00
11184;BME280;5648;43.628;22.684;2022-07-29T05:03:17;95417.44;;;19.55;100.00
11184;BME280;5648;43.628;22.684;2022-07-29T05:05:42;95412.47;;;19.42;100.00
11184;BME280;5648;43.628;22.684;2022-07-29T05:08:08;95417.38;;;19.50;100.00
11184;BME280;5648;43.628;22.684;2022-07-29T05:10:34;95417.84;;;19.42;100.00
11184;BME280;5648;43.628;22.684;2022-07-29T05:13:06;95422.59;;;19.30;100.00
11184;BME280;5648;43.628;22.684;2022-07-29T05:15:36;95426.09;;;19.35;100.00
11184;BME280;5648;43.628;22.684;2022-07-29T05:18:02;95433.53;;;19.55;100.00
11184;BME280;5648;43.628;22.684;2022-07-29T05:20:28;95440.31;;;19.36;100.00
11184;BME280;5648;43.628;22.684;2022-07-29T05:22:58;95434.00;;;19.47;100.00
11184;BME280;5648;43.628;22.684;2022-07-29T05:25:25;95431.47;;;19.62;100.00
11184;BME280;5648;43.628;22.684;2022-07-29T05:27:51;95442.84;;;19.74;100.00
11184;BME280;5648;43.628;22.684;2022-07-29T05:30:17;95436.00;;;19.94;100.00
11184;BME280;5648;43.628;22.684;2022-07-29T05:32:43;95427.47;;;20.02;100.00
11184;BME280;5648;43.628;22.684;2022-07-29T05:35:08;95438.56;;;20.15;100.00
11184;BME280;5648;43.628;22.684;2022-07-29T05:37:34;95443.75;;;20.27;100.00
11184;BME280;5648;43.628;22.684;2022-07-29T05:40:00;95445.28;;;20.13;100.00
11184;BME280;5648;43.628;22.684;2022-07-29T05:42:25;95445.03;;;19.82;100.00
11184;BME280;5648;43.628;22.684;2022-07-29T05:44:52;95445.09;;;19.93;100.00
11184;BME280;5648;43.628;22.684;2022-07-29T05:47:17;95445.34;;;19.86;100.00
11184;BME280;5648;43.628;22.684;2022-07-29T05:49:43;95442.50;;;20.03;100.00
11184;BME280;5648;43.628;22.684;2022-07-29T05:52:08;95449.22;;;20.05;100.00
11184;BME280;5648;43.628;22.684;2022-07-29T05:54:34;95439.59;;;20.09;100.00
11184;BME280;5648;43.628;22.684;2022-07-29T05:57:00;95442.59;;;20.13;100.00
11184;BME280;5648;43.628;22.684;2022-07-29T05:59:26;95445.03;;;20.25;100.00
11184;BME280;5648;43.628;22.684;2022-07-29T06:01:52;95435.16;;;20.30;100.00
11184;BME280;5648;43.628;22.684;2022-07-29T06:04:17;95434.09;;;20.31;100.00
11184;BME280;5648;43.628;22.684;2022-07-29T06:06:42;95444.09;;;20.41;100.00
11184;BME280;5648;43.628;22.684;2022-07-29T06:09:08;95440.66;;;20.45;100.00
11184;BME280;5648;43.628;22.684;2022-07-29T06:11:33;95446.81;;;20.46;100.00
11184;BME280;5648;43.628;22.684;2022-07-29T06:13:59;95441.75;;;20.55;100.00
11184;BME280;5648;43.628;22.684;2022-07-29T06:16:25;95445.81;;;20.57;100.00
11184;BME280;5648;43.628;22.684;2022-07-29T06:18:50;95438.03;;;20.66;100.00
11184;BME280;5648;43.628;22.684;2022-07-29T06:21:16;95441.91;;;20.90;100.00
11184;BME280;5648;43.628;22.684;2022-07-29T06:23:41;95442.38;;;20.77;100.00
11184;BME280;5648;43.628;22.684;2022-07-29T06:26:07;95441.69;;;21.07;100.00
11184;BME280;5648;43.628;22.684;2022-07-29T06:28:33;95439.53;;;21.09;100.00
11184;BME280;5648;43.628;22.684;2022-07-29T06:30:59;95436.31;;;21.07;100.00
11184;BME280;5648;43.628;22.684;2022-07-29T06:33:25;95440.34;;;21.10;100.00
11184;BME280;5648;43.628;22.684;2022-07-29T06:35:50;95440.63;;;21.13;100.00
11184;BME280;5648;43.628;22.684;2022-07-29T06:38:16;95437.69;;;21.15;100.00
11184;BME280;5648;43.628;22.684;2022-07-29T06:40:45;95435.84;;;21.30;100.00
11184;BME280;5648;43.628;22.684;2022-07-29T06:43:35;95438.00;;;21.28;100.00
11184;BME280;5648;43.628;22.684;2022-07-29T06:46:07;95432.13;;;21.42;100.00
11184;BME280;5648;43.628;22.684;2022-07-29T06:48:34;95443.13;;;21.66;100.00
11184;BME280;5648;43.628;22.684;2022-07-29T06:51:02;95446.91;;;21.75;100.00
11184;BME280;5648;43.628;22.684;2022-07-29T06:53:28;95445.59;;;21.72;100.00
11184;BME280;5648;43.628;22.684;2022-07-29T06:55:53;95447.47;;;21.77;100.00
11184;BME280;5648;43.628;22.684;2022-07-29T06:58:19;95442.09;;;21.97;100.00
11184;BME280;5648;43.628;22.684;2022-07-29T07:00:48;95441.81;;;22.09;100.00
11184;BME280;5648;43.628;22.684;2022-07-29T07:03:15;95432.38;;;22.16;100.00
11184;BME280;5648;43.628;22.684;2022-07-29T07:05:41;95439.38;;;22.22;100.00
11184;BME280;5648;43.628;22.684;2022-07-29T07:08:07;95451.19;;;22.37;100.00
11184;BME280;5648;43.628;22.684;2022-07-29T07:10:33;95447.72;;;22.31;100.00
11184;BME280;5648;43.628;22.684;2022-07-29T07:12:59;95443.09;;;22.47;100.00
11184;BME280;5648;43.628;22.684;2022-07-29T07:15:24;95447.91;;;22.60;100.00
11184;BME280;5648;43.628;22.684;2022-07-29T07:17:50;95449.53;;;22.56;100.00
11184;BME280;5648;43.628;22.684;2022-07-29T07:20:16;95447.63;;;22.62;100.00
11184;BME280;5648;43.628;22.684;2022-07-29T07:22:42;95447.66;;;22.57;100.00
11184;BME280;5648;43.628;22.684;2022-07-29T07:25:08;95450.56;;;22.70;100.00
11184;BME280;5648;43.628;22.684;2022-07-29T07:27:34;95456.22;;;22.69;100.00
11184;BME280;5648;43.628;22.684;2022-07-29T07:29:59;95463.00;;;22.66;100.00
11184;BME280;5648;43.628;22.684;2022-07-29T07:32:25;95460.81;;;22.63;100.00
11184;BME280;5648;43.628;22.684;2022-07-29T07:34:50;95456.22;;;22.84;100.00
11184;BME280;5648;43.628;22.684;2022-07-29T07:37:16;95447.25;;;22.99;100.00
11184;BME280;5648;43.628;22.684;2022-07-29T07:39:42;95461.69;;;23.18;100.00
11184;BME280;5648;43.628;22.684;2022-07-29T07:42:07;95461.22;;;23.06;100.00
11184;BME280;5648;43.628;22.684;2022-07-29T07:44:35;95466.81;;;23.25;100.00
11184;BME280;5648;43.628;22.684;2022-07-29T07:47:00;95456.97;;;23.44;100.00
11184;BME280;5648;43.628;22.684;2022-07-29T07:49:26;95452.88;;;23.52;100.00
11184;BME280;5648;43.628;22.684;2022-07-29T07:51:51;95452.69;;;23.38;100.00
11184;BME280;5648;43.628;22.684;2022-07-29T07:54:17;95468.69;;;23.24;100.00
11184;BME280;5648;43.628;22.684;2022-07-29T07:56:43;95461.63;;;23.33;100.00
11184;BME280;5648;43.628;22.684;2022-07-29T07:59:08;95456.09;;;23.59;100.00
11184;BME280;5648;43.628;22.684;2022-07-29T08:01:34;95449.31;;;23.66;100.00
11184;BME280;5648;43.628;22.684;2022-07-29T08:03:59;95452.34;;;23.50;100.00
11184;BME280;5648;43.628;22.684;2022-07-29T08:06:25;95447.94;;;23.69;100.00
11184;BME280;5648;43.628;22.684;2022-07-29T08:08:50;95444.91;;;23.76;100.00
11184;BME280;5648;43.628;22.684;2022-07-29T08:11:16;95442.84;;;23.96;100.00
11184;BME280;5648;43.628;22.684;2022-07-29T08:13:42;95446.00;;;24.04;100.00
11184;BME280;5648;43.628;22.684;2022-07-29T08:16:08;95440.72;;;24.22;100.00
11184;BME280;5648;43.628;22.684;2022-07-29T08:18:38;95442.72;;;24.41;100.00
11184;BME280;5648;43.628;22.684;2022-07-29T08:21:04;95448.31;;;24.49;100.00
11184;BME280;5648;43.628;22.684;2022-07-29T08:23:29;95448.25;;;24.54;100.00
11184;BME280;5648;43.628;22.684;2022-07-29T08:26:08;95451.84;;;24.45;100.00
11184;BME280;5648;43.628;22.684;2022-07-29T08:28:39;95451.16;;;24.34;100.00
11184;BME280;5648;43.628;22.684;2022-07-29T08:31:05;95448.53;;;24.77;100.00
11184;BME280;5648;43.628;22.684;2022-07-29T08:33:32;95445.31;;;24.75;100.00
11184;BME280;5648;43.628;22.684;2022-07-29T08:35:57;95446.19;;;24.94;100.00
11184;BME280;5648;43.628;22.684;2022-07-29T08:38:23;95437.31;;;24.88;100.00
11184;BME280;5648;43.628;22.684;2022-07-29T08:40:48;95435.09;;;25.14;100.00
11184;BME280;5648;43.628;22.684;2022-07-29T08:43:19;95440.31;;;25.11;100.00
11184;BME280;5648;43.628;22.684;2022-07-29T08:45:49;95443.47;;;24.94;100.00
11184;BME280;5648;43.628;22.684;2022-07-29T08:48:20;95436.50;;;24.88;100.00
11184;BME280;5648;43.628;22.684;2022-07-29T08:50:47;95428.97;;;25.28;100.00
11184;BME280;5648;43.628;22.684;2022-07-29T08:53:15;95440.38;;;25.25;100.00
11184;BME280;5648;43.628;22.684;2022-07-29T08:55:48;95438.78;;;25.42;100.00
11184;BME280;5648;43.628;22.684;2022-07-29T08:58:14;95432.78;;;25.27;100.00
11184;BME280;5648;43.628;22.684;2022-07-29T09:00:43;95432.47;;;25.47;100.00
11184;BME280;5648;43.628;22.684;2022-07-29T09:03:10;95434.13;;;25.48;100.00
11184;BME280;5648;43.628;22.684;2022-07-29T09:05:41;95438.19;;;25.27;100.00
11184;BME280;5648;43.628;22.684;2022-07-29T09:08:07;95437.59;;;25.67;100.00
11184;BME280;5648;43.628;22.684;2022-07-29T09:10:35;95440.53;;;25.71;100.00
11184;BME280;5648;43.628;22.684;2022-07-29T09:13:00;95424.94;;;25.82;100.00
11184;BME280;5648;43.628;22.684;2022-07-29T09:15:26;95425.53;;;25.79;100.00
11184;BME280;5648;43.628;22.684;2022-07-29T09:17:51;95435.44;;;25.69;100.00
11184;BME280;5648;43.628;22.684;2022-07-29T09:20:21;95431.88;;;25.88;100.00
11184;BME280;5648;43.628;22.684;2022-07-29T09:22:50;95432.63;;;25.74;100.00
11184;BME280;5648;43.628;22.684;2022-07-29T09:25:38;95429.66;;;25.90;100.00
11184;BME280;5648;43.628;22.684;2022-07-29T09:28:10;95437.53;;;25.54;100.00
11184;BME280;5648;43.628;22.684;2022-07-29T09:30:57;95446.38;;;25.59;100.00
11184;BME280;5648;43.628;22.684;2022-07-29T09:33:34;95434.19;;;25.62;100.00
11184;BME280;5648;43.628;22.684;2022-07-29T09:36:08;95428.84;;;25.38;100.00
11184;BME280;5648;43.628;22.684;2022-07-29T09:38:34;95437.09;;;25.46;100.00
11184;BME280;5648;43.628;22.684;2022-07-29T09:41:03;95431.47;;;25.62;100.00
11184;BME280;5648;43.628;22.684;2022-07-29T09:43:29;95430.66;;;25.80;100.00
11184;BME280;5648;43.628;22.684;2022-07-29T09:45:55;95425.94;;;26.04;100.00
11184;BME280;5648;43.628;22.684;2022-07-29T09:48:23;95421.22;;;26.10;100.00
11184;BME280;5648;43.628;22.684;2022-07-29T09:50:50;95420.69;;;26.41;100.00
11184;BME280;5648;43.628;22.684;2022-07-29T09:53:32;95421.84;;;26.21;100.00
11184;BME280;5648;43.628;22.684;2022-07-29T09:55:58;95415.94;;;26.32;100.00
11184;BME280;5648;43.628;22.684;2022-07-29T09:58:24;95415.97;;;26.00;100.00
11184;BME280;5648;43.628;22.684;2022-07-29T10:00:52;95415.38;;;26.36;100.00
11184;BME280;5648;43.628;22.684;2022-07-29T10:03:18;95414.78;;;26.52;100.00
11184;BME280;5648;43.628;22.684;2022-07-29T10:05:45;95412.16;;;27.02;100.00
11184;BME280;5648;43.628;22.684;2022-07-29T10:08:12;95416.88;;;27.10;100.00
11184;BME280;5648;43.628;22.684;2022-07-29T10:10:42;95415.19;;;27.01;100.00
11184;BME280;5648;43.628;22.684;2022-07-29T10:13:12;95419.78;;;27.14;100.00
11184;BME280;5648;43.628;22.684;2022-07-29T10:15:40;95410.03;;;26.99;100.00
11184;BME280;5648;43.628;22.684;2022-07-29T10:18:10;95416.06;;;27.24;100.00
11184;BME280;5648;43.628;22.684;2022-07-29T10:20:37;95406.47;;;27.40;100.00
11184;BME280;5648;43.628;22.684;2022-07-29T10:23:03;95409.34;;;27.21;100.00
11184;BME280;5648;43.628;22.684;2022-07-29T10:25:29;95412.31;;;27.33;100.00
11184;BME280;5648;43.628;22.684;2022-07-29T10:27:55;95408.72;;;27.24;100.00
11184;BME280;5648;43.628;22.684;2022-07-29T10:30:23;95408.34;;;27.17;100.00
11184;BME280;5648;43.628;22.684;2022-07-29T10:33:38;95407.81;;;27.15;100.00
11184;BME280;5648;43.628;22.684;2022-07-29T10:36:05;95405.72;;;27.12;100.00
11184;BME280;5648;43.628;22.684;2022-07-29T10:38:52;95402.66;;;27.27;100.00
11184;BME280;5648;43.628;22.684;2022-07-29T10:44:16;95392.19;;;27.70;100.00
11184;BME280;5648;43.628;22.684;2022-07-29T10:46:43;95393.84;;;27.80;100.00
11184;BME280;5648;43.628;22.684;2022-07-29T10:49:18;95401.06;;;27.26;100.00
11184;BME280;5648;43.628;22.684;2022-07-29T10:51:51;95388.50;;;27.52;100.00
11184;BME280;5648;43.628;22.684;2022-07-29T10:54:18;95396.22;;;27.37;100.00
11184;BME280;5648;43.628;22.684;2022-07-29T10:56:45;95394.00;;;27.39;100.00
11184;BME280;5648;43.628;22.684;2022-07-29T11:01:52;95377.41;;;28.07;100.00
11184;BME280;5648;43.628;22.684;2022-07-29T11:04:58;95372.59;;;28.04;100.00
11184;BME280;5648;43.628;22.684;2022-07-29T11:07:25;95372.31;;;28.15;100.00
11184;BME280;5648;43.628;22.684;2022-07-29T11:15:04;95365.34;;;28.62;100.00
11184;BME280;5648;43.628;22.684;2022-07-29T11:20:43;95357.56;;;28.78;100.00
11184;BME280;5648;43.628;22.684;2022-07-29T11:23:23;95363.41;;;29.19;100.00
11184;BME280;5648;43.628;22.684;2022-07-29T11:26:24;95353.72;;;28.79;100.00
11184;BME280;5648;43.628;22.684;2022-07-29T11:31:42;95358.78;;;29.20;100.00
11184;BME280;5648;43.628;22.684;2022-07-29T11:34:22;95363.94;;;29.56;100.00
11184;BME280;5648;43.628;22.684;2022-07-29T11:39:43;95362.16;;;29.60;100.00
11184;BME280;5648;43.628;22.684;2022-07-29T11:47:22;95355.41;;;29.14;100.00
11184;BME280;5648;43.628;22.684;2022-07-29T11:49:49;95359.41;;;29.25;100.00
11184;BME280;5648;43.628;22.684;2022-07-29T11:52:17;95346.13;;;29.15;100.00
11184;BME280;5648;43.628;22.684;2022-07-29T11:54:43;95347.22;;;29.23;100.00
11184;BME280;5648;43.628;22.684;2022-07-29T11:57:09;95352.34;;;29.07;100.00
11184;BME280;5648;43.628;22.684;2022-07-29T11:59:42;95340.03;;;29.10;100.00
11184;BME280;5648;43.628;22.684;2022-07-29T12:02:08;95343.22;;;28.94;100.00
11184;BME280;5648;43.628;22.684;2022-07-29T12:04:47;95341.03;;;28.65;100.00
11184;BME280;5648;43.628;22.684;2022-07-29T12:07:13;95335.53;;;28.96;100.00
11184;BME280;5648;43.628;22.684;2022-07-29T12:09:38;95340.50;;;29.03;100.00
11184;BME280;5648;43.628;22.684;2022-07-29T12:12:04;95344.03;;;28.55;100.00
11184;BME280;5648;43.628;22.684;2022-07-29T12:14:31;95350.00;;;28.66;100.00
11184;BME280;5648;43.628;22.684;2022-07-29T12:16:58;95342.09;;;28.47;100.00
11184;BME280;5648;43.628;22.684;2022-07-29T12:19:24;95335.94;;;28.73;100.00
11184;BME280;5648;43.628;22.684;2022-07-29T12:21:52;95337.78;;;29.03;100.00
11184;BME280;5648;43.628;22.684;2022-07-29T12:24:18;95338.75;;;29.07;100.00
11184;BME280;5648;43.628;22.684;2022-07-29T12:26:52;95334.59;;;29.01;100.00
11184;BME280;5648;43.628;22.684;2022-07-29T12:29:18;95333.13;;;29.04;100.00
11184;BME280;5648;43.628;22.684;2022-07-29T12:31:44;95323.69;;;29.18;100.00
11184;BME280;5648;43.628;22.684;2022-07-29T12:34:13;95329.31;;;29.48;100.00
11184;BME280;5648;43.628;22.684;2022-07-29T12:36:40;95333.66;;;29.58;100.00
11184;BME280;5648;43.628;22.684;2022-07-29T12:39:07;95323.06;;;29.47;100.00
11184;BME280;5648;43.628;22.684;2022-07-29T12:41:34;95326.28;;;29.49;100.00
11184;BME280;5648;43.628;22.684;2022-07-29T12:44:00;95318.56;;;29.25;100.00
11184;BME280;5648;43.628;22.684;2022-07-29T12:46:26;95317.44;;;29.44;100.00
11184;BME280;5648;43.628;22.684;2022-07-29T12:48:52;95329.28;;;29.13;100.00
11184;BME280;5648;43.628;22.684;2022-07-29T12:51:29;95320.47;;;28.90;100.00
11184;BME280;5648;43.628;22.684;2022-07-29T12:54:12;95317.94;;;29.46;100.00
11184;BME280;5648;43.628;22.684;2022-07-29T12:56:42;95313.59;;;29.62;100.00
11184;BME280;5648;43.628;22.684;2022-07-29T12:59:19;95317.41;;;29.70;100.00
11184;BME280;5648;43.628;22.684;2022-07-29T13:01:47;95306.94;;;30.06;100.00
11184;BME280;5648;43.628;22.684;2022-07-29T13:04:30;95310.41;;;30.24;100.00
11184;BME280;5648;43.628;22.684;2022-07-29T13:07:06;95303.81;;;30.25;96.59
11184;BME280;5648;43.628;22.684;2022-07-29T13:09:41;95305.91;;;30.28;94.59
11184;BME280;5648;43.628;22.684;2022-07-29T13:12:09;95301.59;;;30.57;100.00
11184;BME280;5648;43.628;22.684;2022-07-29T13:14:40;95294.78;;;30.92;96.77
11184;BME280;5648;43.628;22.684;2022-07-29T13:17:15;95297.88;;;30.91;88.36
11184;BME280;5648;43.628;22.684;2022-07-29T13:19:48;95293.53;;;31.11;96.56
11184;BME280;5648;43.628;22.684;2022-07-29T13:22:24;95291.75;;;31.15;94.30
11184;BME280;5648;43.628;22.684;2022-07-29T13:27:20;95280.84;;;31.69;93.11
11184;BME280;5648;43.628;22.684;2022-07-29T13:29:46;95283.63;;;31.81;89.38
11184;BME280;5648;43.628;22.684;2022-07-29T13:32:12;95282.50;;;31.94;83.23
11184;BME280;5648;43.628;22.684;2022-07-29T13:34:39;95280.72;;;32.23;78.69
11184;BME280;5648;43.628;22.684;2022-07-29T13:37:04;95269.75;;;31.98;72.85